sensor_id;sensor_type;location;lat;lon;timestamp;temperature;humidity
41722;DHT22;27407;24.142;-110.310;2023-05-24T00:01:12;40.60;42.10
41722;DHT22;27407;24.142;-110.310;2023-05-24T00:03:39;39.80;42.70
41722;DHT22;27407;24.142;-110.310;2023-05-24T00:06:07;38.90;43.10
41722;DHT22;27407;24.142;-110.310;2023-05-24T00:08:34;38.50;43.60
41722;DHT22;27407;24.142;-110.310;2023-05-24T00:11:01;38.20;43.80
41722;DHT22;27407;24.142;-110.310;2023-05-24T00:13:28;37.90;44.40
41722;DHT22;27407;24.142;-110.310;2023-05-24T00:15:55;37.60;44.80
41722;DHT22;27407;24.142;-110.310;2023-05-24T00:18:21;37.60;44.90
41722;DHT22;27407;24.142;-110.310;2023-05-24T00:20:48;37.30;45.40
41722;DHT22;27407;24.142;-110.310;2023-05-24T00:23:17;37.30;46.00
41722;DHT22;27407;24.142;-110.310;2023-05-24T00:25:43;37.40;46.90
41722;DHT22;27407;24.142;-110.310;2023-05-24T00:28:10;37.40;46.50
41722;DHT22;27407;24.142;-110.310;2023-05-24T00:30:44;37.10;47.40
41722;DHT22;27407;24.142;-110.310;2023-05-24T00:33:11;37.30;47.60
41722;DHT22;27407;24.142;-110.310;2023-05-24T00:35:39;37.70;47.60
41722;DHT22;27407;24.142;-110.310;2023-05-24T00:38:49;38.10;47.00
41722;DHT22;27407;24.142;-110.310;2023-05-24T00:41:33;37.90;47.70
41722;DHT22;27407;24.142;-110.310;2023-05-24T00:46:59;37.50;48.50
41722;DHT22;27407;24.142;-110.310;2023-05-24T00:49:37;37.30;49.00
41722;DHT22;27407;24.142;-110.310;2023-05-24T00:52:20;36.90;48.40
41722;DHT22;27407;24.142;-110.310;2023-05-24T00:54:53;36.50;49.60
41722;DHT22;27407;24.142;-110.310;2023-05-24T00:57:27;36.20;49.60
41722;DHT22;27407;24.142;-110.310;2023-05-24T00:59:59;35.80;50.80
41722;DHT22;27407;24.142;-110.310;2023-05-24T01:02:36;35.60;50.30
41722;DHT22;27407;24.142;-110.310;2023-05-24T01:05:07;35.10;48.60
41722;DHT22;27407;24.142;-110.310;2023-05-24T01:08:03;34.80;49.40
41722;DHT22;27407;24.142;-110.310;2023-05-24T01:16:26;34.30;52.60
41722;DHT22;27407;24.142;-110.310;2023-05-24T01:19:09;34.50;52.50
41722;DHT22;27407;24.142;-110.310;2023-05-24T01:27:49;33.60;54.10
41722;DHT22;27407;24.142;-110.310;2023-05-24T01:33:16;33.00;55.60
41722;DHT22;27407;24.142;-110.310;2023-05-24T01:35:43;32.80;56.80
41722;DHT22;27407;24.142;-110.310;2023-05-24T01:38:11;32.70;57.70
41722;DHT22;27407;24.142;-110.310;2023-05-24T01:40:41;32.50;58.60
41722;DHT22;27407;24.142;-110.310;2023-05-24T01:46:35;32.30;59.90
41722;DHT22;27407;24.142;-110.310;2023-05-24T01:49:29;32.10;61.10
41722;DHT22;27407;24.142;-110.310;2023-05-24T01:52:12;31.70;62.10
41722;DHT22;27407;24.142;-110.310;2023-05-24T01:54:47;31.60;63.40
41722;DHT22;27407;24.142;-110.310;2023-05-24T01:57:19;31.10;65.10
41722;DHT22;27407;24.142;-110.310;2023-05-24T01:59:53;31.10;65.40
41722;DHT22;27407;24.142;-110.310;2023-05-24T02:02:24;30.90;65.90
41722;DHT22;27407;24.142;-110.310;2023-05-24T02:04:55;30.80;66.50
41722;DHT22;27407;24.142;-110.310;2023-05-24T02:07:35;30.70;67.00
41722;DHT22;27407;24.142;-110.310;2023-05-24T02:10:02;30.70;67.80
41722;DHT22;27407;24.142;-110.310;2023-05-24T02:12:29;30.70;68.10
41722;DHT22;27407;24.142;-110.310;2023-05-24T02:14:56;30.60;69.60
41722;DHT22;27407;24.142;-110.310;2023-05-24T02:17:57;30.60;70.70
41722;DHT22;27407;24.142;-110.310;2023-05-24T02:20:31;30.50;71.00
41722;DHT22;27407;24.142;-110.310;2023-05-24T02:23:05;30.40;71.00
41722;DHT22;27407;24.142;-110.310;2023-05-24T02:25:37;30.40;71.00
41722;DHT22;27407;24.142;-110.310;2023-05-24T02:28:04;30.20;71.60
41722;DHT22;27407;24.142;-110.310;2023-05-24T02:30:31;30.00;72.30
41722;DHT22;27407;24.142;-110.310;2023-05-24T02:32:58;30.10;72.40
41722;DHT22;27407;24.142;-110.310;2023-05-24T02:35:25;30.00;72.90
41722;DHT22;27407;24.142;-110.310;2023-05-24T02:37:52;29.80;72.60
41722;DHT22;27407;24.142;-110.310;2023-05-24T02:40:18;29.70;73.10
41722;DHT22;27407;24.142;-110.310;2023-05-24T02:42:45;29.60;73.10
41722;DHT22;27407;24.142;-110.310;2023-05-24T02:45:12;29.60;73.20
41722;DHT22;27407;24.142;-110.310;2023-05-24T02:47:38;29.50;73.30
41722;DHT22;27407;24.142;-110.310;2023-05-24T02:50:05;29.30;74.00
41722;DHT22;27407;24.142;-110.310;2023-05-24T02:52:32;29.40;74.20
41722;DHT22;27407;24.142;-110.310;2023-05-24T02:54:59;29.40;73.80
41722;DHT22;27407;24.142;-110.310;2023-05-24T02:57:25;29.50;73.50
41722;DHT22;27407;24.142;-110.310;2023-05-24T02:59:53;29.20;73.70
41722;DHT22;27407;24.142;-110.310;2023-05-24T03:02:20;29.30;73.70
41722;DHT22;27407;24.142;-110.310;2023-05-24T03:04:47;29.30;73.60
41722;DHT22;27407;24.142;-110.310;2023-05-24T03:07:14;29.10;74.00
41722;DHT22;27407;24.142;-110.310;2023-05-24T03:09:43;29.10;74.50
41722;DHT22;27407;24.142;-110.310;2023-05-24T03:12:10;29.10;73.90
41722;DHT22;27407;24.142;-110.310;2023-05-24T03:14:37;28.90;73.90
41722;DHT22;27407;24.142;-110.310;2023-05-24T03:17:07;28.90;74.20
41722;DHT22;27407;24.142;-110.310;2023-05-24T03:19:33;28.80;74.20
41722;DHT22;27407;24.142;-110.310;2023-05-24T03:22:00;28.70;75.00
41722;DHT22;27407;24.142;-110.310;2023-05-24T03:24:26;28.50;75.70
41722;DHT22;27407;24.142;-110.310;2023-05-24T03:26:53;28.50;75.80
41722;DHT22;27407;24.142;-110.310;2023-05-24T03:29:20;28.40;76.40
41722;DHT22;27407;24.142;-110.310;2023-05-24T03:31:47;28.40;76.70
41722;DHT22;27407;24.142;-110.310;2023-05-24T03:34:13;28.30;77.30
41722;DHT22;27407;24.142;-110.310;2023-05-24T03:36:40;28.20;78.10
41722;DHT22;27407;24.142;-110.310;2023-05-24T03:39:07;28.20;78.10
41722;DHT22;27407;24.142;-110.310;2023-05-24T03:41:34;28.20;78.10
41722;DHT22;27407;24.142;-110.310;2023-05-24T03:44:01;28.40;77.70
41722;DHT22;27407;24.142;-110.310;2023-05-24T03:46:27;28.20;77.50
41722;DHT22;27407;24.142;-110.310;2023-05-24T03:48:54;28.10;77.70
41722;DHT22;27407;24.142;-110.310;2023-05-24T03:51:21;28.10;77.30
41722;DHT22;27407;24.142;-110.310;2023-05-24T03:53:57;28.10;76.70
41722;DHT22;27407;24.142;-110.310;2023-05-24T03:56:25;28.10;76.20
41722;DHT22;27407;24.142;-110.310;2023-05-24T03:58:52;28.10;75.60
41722;DHT22;27407;24.142;-110.310;2023-05-24T04:01:19;28.10;75.60
41722;DHT22;27407;24.142;-110.310;2023-05-24T04:03:46;28.10;75.20
41722;DHT22;27407;24.142;-110.310;2023-05-24T04:06:13;28.10;75.10
41722;DHT22;27407;24.142;-110.310;2023-05-24T04:08:39;28.00;74.30
41722;DHT22;27407;24.142;-110.310;2023-05-24T04:11:06;28.10;72.40
41722;DHT22;27407;24.142;-110.310;2023-05-24T04:13:33;28.00;71.90
41722;DHT22;27407;24.142;-110.310;2023-05-24T04:15:59;28.10;71.00
41722;DHT22;27407;24.142;-110.310;2023-05-24T04:18:28;28.10;71.40
41722;DHT22;27407;24.142;-110.310;2023-05-24T04:20:55;28.10;71.80
41722;DHT22;27407;24.142;-110.310;2023-05-24T04:23:22;28.10;70.70
41722;DHT22;27407;24.142;-110.310;2023-05-24T04:25:48;28.20;70.30
41722;DHT22;27407;24.142;-110.310;2023-05-24T04:28:15;28.00;70.70
41722;DHT22;27407;24.142;-110.310;2023-05-24T04:30:42;27.90;70.60
41722;DHT22;27407;24.142;-110.310;2023-05-24T04:33:11;28.00;70.10
41722;DHT22;27407;24.142;-110.310;2023-05-24T04:35:37;28.00;69.90
41722;DHT22;27407;24.142;-110.310;2023-05-24T04:38:06;28.00;69.90
41722;DHT22;27407;24.142;-110.310;2023-05-24T04:40:32;28.00;70.30
41722;DHT22;27407;24.142;-110.310;2023-05-24T04:42:59;28.00;69.90
41722;DHT22;27407;24.142;-110.310;2023-05-24T04:45:26;28.00;70.30
41722;DHT22;27407;24.142;-110.310;2023-05-24T04:47:52;27.90;70.20
41722;DHT22;27407;24.142;-110.310;2023-05-24T04:50:19;28.00;70.30
41722;DHT22;27407;24.142;-110.310;2023-05-24T04:52:45;27.90;70.20
41722;DHT22;27407;24.142;-110.310;2023-05-24T04:55:12;27.90;70.80
41722;DHT22;27407;24.142;-110.310;2023-05-24T04:57:41;27.90;71.50
41722;DHT22;27407;24.142;-110.310;2023-05-24T05:00:09;27.90;70.70
41722;DHT22;27407;24.142;-110.310;2023-05-24T05:02:35;28.00;71.80
41722;DHT22;27407;24.142;-110.310;2023-05-24T05:05:02;27.90;71.90
41722;DHT22;27407;24.142;-110.310;2023-05-24T05:07:29;27.80;72.80
41722;DHT22;27407;24.142;-110.310;2023-05-24T05:09:59;27.80;73.90
41722;DHT22;27407;24.142;-110.310;2023-05-24T05:12:26;27.70;74.50
41722;DHT22;27407;24.142;-110.310;2023-05-24T05:14:52;27.70;74.50
41722;DHT22;27407;24.142;-110.310;2023-05-24T05:17:19;27.60;74.60
41722;DHT22;27407;24.142;-110.310;2023-05-24T05:19:46;27.60;74.60
41722;DHT22;27407;24.142;-110.310;2023-05-24T05:22:13;27.70;75.00
41722;DHT22;27407;24.142;-110.310;2023-05-24T05:24:40;27.60;74.70
41722;DHT22;27407;24.142;-110.310;2023-05-24T05:27:06;27.50;74.40
41722;DHT22;27407;24.142;-110.310;2023-05-24T05:29:33;27.50;74.30
41722;DHT22;27407;24.142;-110.310;2023-05-24T05:32:00;27.40;74.30
41722;DHT22;27407;24.142;-110.310;2023-05-24T05:34:26;27.50;74.30
41722;DHT22;27407;24.142;-110.310;2023-05-24T05:36:53;27.50;74.70
41722;DHT22;27407;24.142;-110.310;2023-05-24T05:39:20;27.40;75.00
41722;DHT22;27407;24.142;-110.310;2023-05-24T05:41:46;27.40;75.30
41722;DHT22;27407;24.142;-110.310;2023-05-24T05:44:13;27.30;75.70
41722;DHT22;27407;24.142;-110.310;2023-05-24T05:46:40;27.20;75.20
41722;DHT22;27407;24.142;-110.310;2023-05-24T05:49:08;27.20;75.60
41722;DHT22;27407;24.142;-110.310;2023-05-24T05:51:35;27.20;75.30
41722;DHT22;27407;24.142;-110.310;2023-05-24T05:54:04;27.20;75.00
41722;DHT22;27407;24.142;-110.310;2023-05-24T05:56:31;27.20;75.30
41722;DHT22;27407;24.142;-110.310;2023-05-24T05:58:58;27.10;75.60
41722;DHT22;27407;24.142;-110.310;2023-05-24T06:01:25;27.10;75.70
41722;DHT22;27407;24.142;-110.310;2023-05-24T06:03:51;27.00;75.80
41722;DHT22;27407;24.142;-110.310;2023-05-24T06:06:18;27.00;76.10
41722;DHT22;27407;24.142;-110.310;2023-05-24T06:08:45;27.10;76.20
41722;DHT22;27407;24.142;-110.310;2023-05-24T06:11:11;27.10;76.40
41722;DHT22;27407;24.142;-110.310;2023-05-24T06:13:38;27.10;76.50
41722;DHT22;27407;24.142;-110.310;2023-05-24T06:16:05;27.00;76.40
41722;DHT22;27407;24.142;-110.310;2023-05-24T06:18:33;27.00;74.10
41722;DHT22;27407;24.142;-110.310;2023-05-24T06:21:02;27.00;74.00
41722;DHT22;27407;24.142;-110.310;2023-05-24T06:23:28;27.10;71.40
41722;DHT22;27407;24.142;-110.310;2023-05-24T06:25:55;27.10;70.40
41722;DHT22;27407;24.142;-110.310;2023-05-24T06:28:22;27.10;71.20
41722;DHT22;27407;24.142;-110.310;2023-05-24T06:30:49;27.00;71.40
41722;DHT22;27407;24.142;-110.310;2023-05-24T06:33:16;26.80;73.90
41722;DHT22;27407;24.142;-110.310;2023-05-24T06:35:43;26.80;73.80
41722;DHT22;27407;24.142;-110.310;2023-05-24T06:38:10;26.70;71.90
41722;DHT22;27407;24.142;-110.310;2023-05-24T06:40:36;26.70;73.60
41722;DHT22;27407;24.142;-110.310;2023-05-24T06:43:04;26.80;72.90
41722;DHT22;27407;24.142;-110.310;2023-05-24T06:45:30;26.70;72.40
41722;DHT22;27407;24.142;-110.310;2023-05-24T06:47:57;26.70;72.00
41722;DHT22;27407;24.142;-110.310;2023-05-24T06:50:24;26.70;72.70
41722;DHT22;27407;24.142;-110.310;2023-05-24T06:52:50;26.70;73.40
41722;DHT22;27407;24.142;-110.310;2023-05-24T06:55:18;26.70;72.70
41722;DHT22;27407;24.142;-110.310;2023-05-24T06:57:44;26.60;73.20
41722;DHT22;27407;24.142;-110.310;2023-05-24T07:00:11;26.60;73.10
41722;DHT22;27407;24.142;-110.310;2023-05-24T07:02:39;26.70;73.20
41722;DHT22;27407;24.142;-110.310;2023-05-24T07:05:06;26.70;74.30
41722;DHT22;27407;24.142;-110.310;2023-05-24T07:07:42;26.70;74.50
41722;DHT22;27407;24.142;-110.310;2023-05-24T07:10:10;26.70;74.50
41722;DHT22;27407;24.142;-110.310;2023-05-24T07:12:37;26.60;74.50
41722;DHT22;27407;24.142;-110.310;2023-05-24T07:15:04;26.50;74.90
41722;DHT22;27407;24.142;-110.310;2023-05-24T07:17:32;26.60;75.30
41722;DHT22;27407;24.142;-110.310;2023-05-24T07:20:00;26.60;75.60
41722;DHT22;27407;24.142;-110.310;2023-05-24T07:22:27;26.60;75.50
41722;DHT22;27407;24.142;-110.310;2023-05-24T07:24:55;26.60;75.60
41722;DHT22;27407;24.142;-110.310;2023-05-24T07:27:21;26.60;75.80
41722;DHT22;27407;24.142;-110.310;2023-05-24T07:29:48;26.50;75.80
41722;DHT22;27407;24.142;-110.310;2023-05-24T07:32:15;26.60;76.10
41722;DHT22;27407;24.142;-110.310;2023-05-24T07:34:42;26.50;76.20
41722;DHT22;27407;24.142;-110.310;2023-05-24T07:37:08;26.70;76.60
41722;DHT22;27407;24.142;-110.310;2023-05-24T07:39:35;26.70;77.00
41722;DHT22;27407;24.142;-110.310;2023-05-24T07:42:03;26.50;77.40
41722;DHT22;27407;24.142;-110.310;2023-05-24T07:44:30;26.50;77.90
41722;DHT22;27407;24.142;-110.310;2023-05-24T07:46:56;26.50;78.20
41722;DHT22;27407;24.142;-110.310;2023-05-24T07:49:23;26.50;78.70
41722;DHT22;27407;24.142;-110.310;2023-05-24T07:51:50;26.50;79.00
41722;DHT22;27407;24.142;-110.310;2023-05-24T07:54:16;26.40;79.40
41722;DHT22;27407;24.142;-110.310;2023-05-24T07:56:43;26.50;79.70
41722;DHT22;27407;24.142;-110.310;2023-05-24T07:59:10;26.40;79.80
41722;DHT22;27407;24.142;-110.310;2023-05-24T08:01:37;26.30;79.80
41722;DHT22;27407;24.142;-110.310;2023-05-24T08:04:03;26.30;80.20
41722;DHT22;27407;24.142;-110.310;2023-05-24T08:06:30;26.30;80.30
41722;DHT22;27407;24.142;-110.310;2023-05-24T08:09:01;26.30;80.30
41722;DHT22;27407;24.142;-110.310;2023-05-24T08:11:29;26.30;80.90
41722;DHT22;27407;24.142;-110.310;2023-05-24T08:13:55;26.30;81.20
41722;DHT22;27407;24.142;-110.310;2023-05-24T08:16:23;26.30;80.70
41722;DHT22;27407;24.142;-110.310;2023-05-24T08:18:49;26.30;80.80
41722;DHT22;27407;24.142;-110.310;2023-05-24T08:21:16;26.30;81.00
41722;DHT22;27407;24.142;-110.310;2023-05-24T08:23:43;26.40;80.70
41722;DHT22;27407;24.142;-110.310;2023-05-24T08:26:09;26.30;80.20
41722;DHT22;27407;24.142;-110.310;2023-05-24T08:28:36;26.30;80.00
41722;DHT22;27407;24.142;-110.310;2023-05-24T08:31:03;26.30;79.70
41722;DHT22;27407;24.142;-110.310;2023-05-24T08:33:29;26.40;79.70
41722;DHT22;27407;24.142;-110.310;2023-05-24T08:35:56;26.30;79.90
41722;DHT22;27407;24.142;-110.310;2023-05-24T08:38:23;26.30;79.20
41722;DHT22;27407;24.142;-110.310;2023-05-24T08:40:49;26.30;79.00
41722;DHT22;27407;24.142;-110.310;2023-05-24T08:43:16;26.30;79.10
41722;DHT22;27407;24.142;-110.310;2023-05-24T08:45:44;26.40;79.20
41722;DHT22;27407;24.142;-110.310;2023-05-24T08:48:11;26.40;79.00
41722;DHT22;27407;24.142;-110.310;2023-05-24T08:50:38;26.40;78.70
41722;DHT22;27407;24.142;-110.310;2023-05-24T08:53:06;26.40;79.10
41722;DHT22;27407;24.142;-110.310;2023-05-24T08:55:34;26.30;79.20
41722;DHT22;27407;24.142;-110.310;2023-05-24T08:58:01;26.40;79.20
41722;DHT22;27407;24.142;-110.310;2023-05-24T09:00:28;26.40;78.90
41722;DHT22;27407;24.142;-110.310;2023-05-24T09:02:56;26.30;78.90
41722;DHT22;27407;24.142;-110.310;2023-05-24T09:05:24;26.20;79.10
41722;DHT22;27407;24.142;-110.310;2023-05-24T09:07:51;26.20;79.20
41722;DHT22;27407;24.142;-110.310;2023-05-24T09:10:21;26.10;79.20
41722;DHT22;27407;24.142;-110.310;2023-05-24T09:12:55;26.20;79.30
41722;DHT22;27407;24.142;-110.310;2023-05-24T09:15:22;26.00;79.40
41722;DHT22;27407;24.142;-110.310;2023-05-24T09:17:49;26.00;79.70
41722;DHT22;27407;24.142;-110.310;2023-05-24T09:20:16;26.00;79.80
41722;DHT22;27407;24.142;-110.310;2023-05-24T09:22:44;26.00;79.60
41722;DHT22;27407;24.142;-110.310;2023-05-24T09:25:14;25.90;79.50
41722;DHT22;27407;24.142;-110.310;2023-05-24T09:27:41;25.70;79.40
41722;DHT22;27407;24.142;-110.310;2023-05-24T09:30:10;25.60;79.20
41722;DHT22;27407;24.142;-110.310;2023-05-24T09:32:40;25.50;78.60
41722;DHT22;27407;24.142;-110.310;2023-05-24T09:35:07;25.50;78.50
41722;DHT22;27407;24.142;-110.310;2023-05-24T09:37:37;25.50;78.30
41722;DHT22;27407;24.142;-110.310;2023-05-24T09:40:05;25.40;78.10
41722;DHT22;27407;24.142;-110.310;2023-05-24T09:42:33;25.40;78.30
41722;DHT22;27407;24.142;-110.310;2023-05-24T09:45:07;25.50;78.50
41722;DHT22;27407;24.142;-110.310;2023-05-24T09:47:36;25.50;78.10
41722;DHT22;27407;24.142;-110.310;2023-05-24T09:50:05;25.40;77.90
41722;DHT22;27407;24.142;-110.310;2023-05-24T09:52:36;25.50;78.00
41722;DHT22;27407;24.142;-110.310;2023-05-24T09:55:17;25.60;77.50
41722;DHT22;27407;24.142;-110.310;2023-05-24T09:58:05;25.50;76.80
41722;DHT22;27407;24.142;-110.310;2023-05-24T10:00:40;25.50;77.20
41722;DHT22;27407;24.142;-110.310;2023-05-24T10:03:09;25.60;76.30
41722;DHT22;27407;24.142;-110.310;2023-05-24T10:05:40;25.60;76.70
41722;DHT22;27407;24.142;-110.310;2023-05-24T10:08:08;25.50;76.40
41722;DHT22;27407;24.142;-110.310;2023-05-24T10:10:35;25.70;76.80
41722;DHT22;27407;24.142;-110.310;2023-05-24T10:13:03;25.60;76.70
41722;DHT22;27407;24.142;-110.310;2023-05-24T10:15:30;25.60;76.60
41722;DHT22;27407;24.142;-110.310;2023-05-24T10:17:57;25.60;76.40
41722;DHT22;27407;24.142;-110.310;2023-05-24T10:20:33;25.60;75.90
41722;DHT22;27407;24.142;-110.310;2023-05-24T10:23:03;25.60;76.20
41722;DHT22;27407;24.142;-110.310;2023-05-24T10:25:34;25.50;76.20
41722;DHT22;27407;24.142;-110.310;2023-05-24T10:28:07;25.60;75.90
41722;DHT22;27407;24.142;-110.310;2023-05-24T10:33:35;25.50;75.80
41722;DHT22;27407;24.142;-110.310;2023-05-24T10:36:06;25.60;75.90
41722;DHT22;27407;24.142;-110.310;2023-05-24T10:38:37;25.60;75.80
41722;DHT22;27407;24.142;-110.310;2023-05-24T10:41:09;25.60;75.50
41722;DHT22;27407;24.142;-110.310;2023-05-24T10:43:38;25.60;75.70
41722;DHT22;27407;24.142;-110.310;2023-05-24T10:46:08;25.70;75.70
41722;DHT22;27407;24.142;-110.310;2023-05-24T10:48:39;25.70;75.70
41722;DHT22;27407;24.142;-110.310;2023-05-24T10:54:17;25.60;75.30
41722;DHT22;27407;24.142;-110.310;2023-05-24T10:56:45;25.70;75.80
41722;DHT22;27407;24.142;-110.310;2023-05-24T10:59:41;25.60;75.20
41722;DHT22;27407;24.142;-110.310;2023-05-24T11:02:10;25.60;75.40
41722;DHT22;27407;24.142;-110.310;2023-05-24T11:04:45;25.70;75.10
41722;DHT22;27407;24.142;-110.310;2023-05-24T11:07:14;25.60;75.00
41722;DHT22;27407;24.142;-110.310;2023-05-24T11:09:41;25.70;74.60
41722;DHT22;27407;24.142;-110.310;2023-05-24T11:12:18;25.70;74.20
41722;DHT22;27407;24.142;-110.310;2023-05-24T11:14:51;25.80;74.30
41722;DHT22;27407;24.142;-110.310;2023-05-24T11:17:21;25.70;74.30
41722;DHT22;27407;24.142;-110.310;2023-05-24T11:19:55;25.60;74.30
41722;DHT22;27407;24.142;-110.310;2023-05-24T11:22:24;25.70;74.10
41722;DHT22;27407;24.142;-110.310;2023-05-24T11:24:52;25.70;73.90
41722;DHT22;27407;24.142;-110.310;2023-05-24T11:27:19;25.80;73.50
41722;DHT22;27407;24.142;-110.310;2023-05-24T11:29:53;25.80;73.30
41722;DHT22;27407;24.142;-110.310;2023-05-24T11:32:21;25.80;74.00
41722;DHT22;27407;24.142;-110.310;2023-05-24T11:34:49;25.70;72.80
41722;DHT22;27407;24.142;-110.310;2023-05-24T11:37:16;25.70;72.10
41722;DHT22;27407;24.142;-110.310;2023-05-24T11:39:43;25.70;71.70
41722;DHT22;27407;24.142;-110.310;2023-05-24T11:42:09;25.70;71.10
41722;DHT22;27407;24.142;-110.310;2023-05-24T11:44:36;25.80;70.50
41722;DHT22;27407;24.142;-110.310;2023-05-24T11:47:05;25.70;70.90
41722;DHT22;27407;24.142;-110.310;2023-05-24T11:49:33;25.80;70.70
41722;DHT22;27407;24.142;-110.310;2023-05-24T11:52:00;25.70;70.50
41722;DHT22;27407;24.142;-110.310;2023-05-24T11:54:28;25.60;70.80
41722;DHT22;27407;24.142;-110.310;2023-05-24T11:56:55;25.70;70.80
41722;DHT22;27407;24.142;-110.310;2023-05-24T11:59:26;25.70;70.70
41722;DHT22;27407;24.142;-110.310;2023-05-24T12:02:01;25.60;71.00
41722;DHT22;27407;24.142;-110.310;2023-05-24T12:04:29;25.60;70.60
41722;DHT22;27407;24.142;-110.310;2023-05-24T12:06:57;25.60;70.50
41722;DHT22;27407;24.142;-110.310;2023-05-24T12:09:24;25.70;70.90
41722;DHT22;27407;24.142;-110.310;2023-05-24T12:11:52;25.60;69.70
41722;DHT22;27407;24.142;-110.310;2023-05-24T12:14:22;25.70;69.80
41722;DHT22;27407;24.142;-110.310;2023-05-24T12:16:53;25.50;69.90
41722;DHT22;27407;24.142;-110.310;2023-05-24T12:19:32;25.40;70.20
41722;DHT22;27407;24.142;-110.310;2023-05-24T12:22:06;25.30;70.70
41722;DHT22;27407;24.142;-110.310;2023-05-24T12:24:33;25.20;71.00
41722;DHT22;27407;24.142;-110.310;2023-05-24T12:27:04;25.20;69.80
41722;DHT22;27407;24.142;-110.310;2023-05-24T12:29:39;25.10;70.00
41722;DHT22;27407;24.142;-110.310;2023-05-24T12:32:10;25.10;70.40
41722;DHT22;27407;24.142;-110.310;2023-05-24T12:34:43;24.90;71.80
41722;DHT22;27407;24.142;-110.310;2023-05-24T12:37:11;24.80;73.50
41722;DHT22;27407;24.142;-110.310;2023-05-24T12:39:38;24.50;75.50
41722;DHT22;27407;24.142;-110.310;2023-05-24T12:42:07;24.40;75.90
41722;DHT22;27407;24.142;-110.310;2023-05-24T12:44:37;24.20;76.60
41722;DHT22;27407;24.142;-110.310;2023-05-24T12:47:06;24.10;76.80
41722;DHT22;27407;24.142;-110.310;2023-05-24T12:49:33;24.00;76.70
41722;DHT22;27407;24.142;-110.310;2023-05-24T12:52:00;23.90;77.70
41722;DHT22;27407;24.142;-110.310;2023-05-24T12:54:29;23.80;77.80
41722;DHT22;27407;24.142;-110.310;2023-05-24T12:56:57;23.80;78.00
41722;DHT22;27407;24.142;-110.310;2023-05-24T12:59:28;23.60;78.90
41722;DHT22;27407;24.142;-110.310;2023-05-24T13:01:54;23.40;79.30
41722;DHT22;27407;24.142;-110.310;2023-05-24T13:04:22;23.20;79.20
41722;DHT22;27407;24.142;-110.310;2023-05-24T13:06:51;23.00;79.70
41722;DHT22;27407;24.142;-110.310;2023-05-24T13:09:25;22.90;79.60
41722;DHT22;27407;24.142;-110.310;2023-05-24T13:12:00;22.90;79.90
41722;DHT22;27407;24.142;-110.310;2023-05-24T13:14:27;23.00;79.90
41722;DHT22;27407;24.142;-110.310;2023-05-24T13:16:54;23.00;79.60
41722;DHT22;27407;24.142;-110.310;2023-05-24T13:19:21;23.00;79.50
41722;DHT22;27407;24.142;-110.310;2023-05-24T13:21:48;23.20;79.00
41722;DHT22;27407;24.142;-110.310;2023-05-24T13:24:20;23.30;78.50
41722;DHT22;27407;24.142;-110.310;2023-05-24T13:26:51;23.30;78.30
41722;DHT22;27407;24.142;-110.310;2023-05-24T13:29:17;23.40;79.10
41722;DHT22;27407;24.142;-110.310;2023-05-24T13:31:44;23.50;78.40
41722;DHT22;27407;24.142;-110.310;2023-05-24T13:34:11;23.70;76.60
41722;DHT22;27407;24.142;-110.310;2023-05-24T13:36:48;24.00;76.20
41722;DHT22;27407;24.142;-110.310;2023-05-24T13:39:15;24.60;73.20
41722;DHT22;27407;24.142;-110.310;2023-05-24T13:41:50;25.10;71.90
41722;DHT22;27407;24.142;-110.310;2023-05-24T13:44:18;25.40;71.20
41722;DHT22;27407;24.142;-110.310;2023-05-24T13:46:45;25.50;71.30
41722;DHT22;27407;24.142;-110.310;2023-05-24T13:49:13;25.60;71.30
41722;DHT22;27407;24.142;-110.310;2023-05-24T13:51:40;25.80;71.20
41722;DHT22;27407;24.142;-110.310;2023-05-24T13:54:37;25.90;71.20
41722;DHT22;27407;24.142;-110.310;2023-05-24T13:57:04;26.10;71.20
41722;DHT22;27407;24.142;-110.310;2023-05-24T13:59:34;26.20;71.30
41722;DHT22;27407;24.142;-110.310;2023-05-24T14:02:02;26.30;71.00
41722;DHT22;27407;24.142;-110.310;2023-05-24T14:04:29;26.60;69.70
41722;DHT22;27407;24.142;-110.310;2023-05-24T14:06:56;26.80;69.30
41722;DHT22;27407;24.142;-110.310;2023-05-24T14:09:23;27.00;69.50
41722;DHT22;27407;24.142;-110.310;2023-05-24T14:11:52;27.10;69.60
41722;DHT22;27407;24.142;-110.310;2023-05-24T14:14:19;27.10;69.10
41722;DHT22;27407;24.142;-110.310;2023-05-24T14:16:47;27.20;69.50
41722;DHT22;27407;24.142;-110.310;2023-05-24T14:19:17;27.30;69.00
41722;DHT22;27407;24.142;-110.310;2023-05-24T14:21:57;27.20;68.70
41722;DHT22;27407;24.142;-110.310;2023-05-24T14:24:28;27.20;68.50
41722;DHT22;27407;24.142;-110.310;2023-05-24T14:26:55;27.20;68.70
41722;DHT22;27407;24.142;-110.310;2023-05-24T14:29:25;27.30;67.70
41722;DHT22;27407;24.142;-110.310;2023-05-24T14:31:58;27.20;68.30
41722;DHT22;27407;24.142;-110.310;2023-05-24T14:34:36;27.50;67.10
41722;DHT22;27407;24.142;-110.310;2023-05-24T14:37:05;27.50;68.20
41722;DHT22;27407;24.142;-110.310;2023-05-24T14:39:41;27.60;67.60
41722;DHT22;27407;24.142;-110.310;2023-05-24T14:42:18;27.80;67.60
41722;DHT22;27407;24.142;-110.310;2023-05-24T14:44:51;27.80;67.30
41722;DHT22;27407;24.142;-110.310;2023-05-24T14:47:21;28.00;67.50
41722;DHT22;27407;24.142;-110.310;2023-05-24T14:49:49;28.00;67.00
41722;DHT22;27407;24.142;-110.310;2023-05-24T14:52:20;28.10;64.60
41722;DHT22;27407;24.142;-110.310;2023-05-24T14:54:55;28.10;64.90
41722;DHT22;27407;24.142;-110.310;2023-05-24T14:57:23;28.10;64.60
41722;DHT22;27407;24.142;-110.310;2023-05-24T14:59:50;28.20;65.00
41722;DHT22;27407;24.142;-110.310;2023-05-24T15:02:27;28.20;65.00
41722;DHT22;27407;24.142;-110.310;2023-05-24T15:04:56;28.40;64.90
41722;DHT22;27407;24.142;-110.310;2023-05-24T15:07:32;28.40;63.10
41722;DHT22;27407;24.142;-110.310;2023-05-24T15:10:03;28.40;62.40
41722;DHT22;27407;24.142;-110.310;2023-05-24T15:12:39;28.60;61.40
41722;DHT22;27407;24.142;-110.310;2023-05-24T15:15:17;28.90;61.80
41722;DHT22;27407;24.142;-110.310;2023-05-24T15:17:50;29.10;61.80
41722;DHT22;27407;24.142;-110.310;2023-05-24T15:20:18;29.20;61.40
41722;DHT22;27407;24.142;-110.310;2023-05-24T15:22:54;29.30;61.30
41722;DHT22;27407;24.142;-110.310;2023-05-24T15:25:26;29.40;60.80
41722;DHT22;27407;24.142;-110.310;2023-05-24T15:27:53;29.50;60.20